Hodges, MT

1:21 PM MST on December 09, 2016 (GMT -0700)
| | Change Station

Elev -9999 ft 0.00 °N, 0.00 °E | Updated 0 second ago

Partly Cloudy
Partly Cloudy
54 °F
Feels Like 54 °F
N
4
Wind Variable Wind from NNW
Gusts mph

Today
High -- | Low -- °F
--% Chance of Precip.
Yesterday
High -- | Low -- °F
Precip. -- in
Pressure 30.46 in
Visibility 10.0 miles
Clouds Clear
Dew Point 49 °F
Humidity 82%
Rainfall --
Snow Depth Not available.
7:31 AM 4:08 PM
Waxing Gibbous, 77% visible
METAR K20U 091955Z AUTO 00000KT 10SM CLR M20/M22 A3046 RMK AO2
Pressure 30.46 in
Visibility 10.0 miles
Clouds Clear
Dew Point 49 °F
Humidity 82%
Rainfall --
Snow Depth Not available.
7:31 AM 4:08 PM
Waxing Gibbous, 77% visible
METAR K20U 091955Z AUTO 00000KT 10SM CLR M20/M22 A3046 RMK AO2

10-Day Weather Forecast

Almanac

Astronomy

Dec. 09, 2016 Rise Set
Actual Time
Civil Twilight
Nautical Twilight
Astronomical Twilight
Moon
Length of Visible Light
Length of Day
Tomorrow will be .
, % of the Moon is Illuminated

Today's Extremes

State Highs State Lows

Community

WunderPhotos

Upload Photos

1,956,517 photos uploaded!

WunderBlog® & News

Nearby

Air Quality

  Air Quality AQ Index Pollutant
Not available.

Snow Depth

Station Depth Elevation

Earthquake Activity

City Distance Mag. Time & Date
Minimum magnitude displayed is 2.5.

Coastal Water Temperatures

Place Temperature

Stations

Nearby Weather Stations

Station Location Temp. Windchill Dew Point Humidity Wind Precip. Elev Updated Type
                   

Watches & Warnings

There are currently no watches in effect.